Time;durP1;ratioP1;P1;durP2;ratioP2;P2;SDS_P1;SDS_P2;PMS_P1;PMS_P2;Temp;Humidity;BMP_temperature;BMP_pressure;BME280_temperature;BME280_humidity;BME280_pressure;Samples;Min_cycle;Max_cycle;Signal;HPM_P1;HPM_P2
2024/03/14 00:01:04;;;;;;;0.82;0.82;;;9.20;99.90;;;;;;4962349;28;20096;-73
2024/03/14 00:03:32;;;;;;;3.42;1.15;;;9.10;99.90;;;;;;4966288;28;20043;-73
2024/03/14 00:05:59;;;;;;;1.15;1.05;;;9.10;99.90;;;;;;4954047;28;20050;-73
2024/03/14 00:08:26;;;;;;;0.63;0.63;;;9.10;99.90;;;;;;4962101;28;20046;-73
2024/03/14 00:10:54;;;;;;;1.15;0.80;;;9.10;99.90;;;;;;4962502;28;20042;-73
2024/03/14 00:13:20;;;;;;;1.10;0.55;;;9.10;99.90;;;;;;4961242;28;20034;-73
2024/03/14 00:15:47;;;;;;;1.55;0.80;;;9.00;99.90;;;;;;4960577;28;20494;-73
2024/03/14 00:18:14;;;;;;;0.68;0.68;;;9.00;99.90;;;;;;4966493;28;20389;-73
2024/03/14 00:20:42;;;;;;;1.65;1.40;;;8.90;99.90;;;;;;4965145;28;20039;-73
2024/03/14 00:23:09;;;;;;;1.27;1.17;;;8.80;99.90;;;;;;4966383;28;20054;-73
2024/03/14 00:25:35;;;;;;;5.07;2.75;;;8.80;99.90;;;;;;4965551;28;20031;-73
2024/03/14 00:28:02;;;;;;;1.45;1.35;;;8.80;99.90;;;;;;4964652;28;20504;-73
2024/03/14 00:30:28;;;;;;;1.65;1.40;;;8.70;99.90;;;;;;4958890;28;20050;-73
2024/03/14 00:32:56;;;;;;;3.60;2.60;;;8.70;99.90;;;;;;4963442;28;20039;-73
2024/03/14 00:35:23;;;;;;;8.82;1.45;;;8.60;99.90;;;;;;4965463;28;20038;-73
2024/03/14 00:37:50;;;;;;;1.50;1.25;;;8.60;99.90;;;;;;4964989;28;20050;-73
2024/03/14 00:40:18;;;;;;;1.90;1.35;;;8.50;99.90;;;;;;4964650;28;20066;-73
2024/03/14 00:42:45;;;;;;;1.38;0.93;;;8.50;99.90;;;;;;4966430;28;20054;-73
2024/03/14 00:45:15;;;;;;;1.98;1.65;;;8.40;99.90;;;;;;4958529;28;20038;-73
2024/03/14 00:47:41;;;;;;;2.17;1.98;;;8.40;99.90;;;;;;4945489;28;20457;-73
2024/03/14 00:50:08;;;;;;;0.95;0.95;;;8.40;99.90;;;;;;4956134;28;20043;-73
2024/03/14 00:52:35;;;;;;;0.55;0.50;;;8.30;99.90;;;;;;4960448;28;20378;-73
2024/03/14 00:55:04;;;;;;;1.45;1.35;;;8.30;99.90;;;;;;4963124;28;20038;-73
2024/03/14 00:57:30;;;;;;;1.25;1.15;;;8.30;99.90;;;;;;4961663;28;20031;-73
2024/03/14 00:59:57;;;;;;;1.40;1.20;;;8.30;99.90;;;;;;4963101;28;20039;-73
2024/03/14 01:02:26;;;;;;;0.55;0.55;;;8.30;99.90;;;;;;4960008;28;20050;-73
2024/03/14 01:04:54;;;;;;;2.10;1.90;;;8.20;99.90;;;;;;4968000;28;20035;-73
2024/03/14 01:07:23;;;;;;;3.05;2.15;;;8.30;99.90;;;;;;4964853;28;20050;-73
2024/03/14 01:09:49;;;;;;;0.82;0.82;;;8.30;99.90;;;;;;4960028;28;20038;-73
2024/03/14 01:12:15;;;;;;;3.63;1.90;;;8.30;99.90;;;;;;4965989;28;20049;-73
2024/03/14 01:14:44;;;;;;;6.63;1.80;;;8.30;99.90;;;;;;4958017;28;20042;-73
2024/03/14 01:17:10;;;;;;;0.68;0.68;;;8.30;99.90;;;;;;4964933;28;20039;-73
2024/03/14 01:19:36;;;;;;;0.55;0.55;;;8.30;99.90;;;;;;4965230;28;20146;-73
2024/03/14 01:22:03;;;;;;;2.08;1.17;;;8.30;99.90;;;;;;4966512;28;20042;-73
2024/03/14 01:24:29;;;;;;;2.13;1.92;;;8.30;99.90;;;;;;4964530;28;20042;-73
2024/03/14 01:26:57;;;;;;;0.95;0.93;;;8.30;99.90;;;;;;4961600;28;20397;-73
2024/03/14 01:29:27;;;;;;;4.97;1.10;;;8.20;99.90;;;;;;4958218;28;20093;-73
2024/03/14 01:31:54;;;;;;;1.25;1.15;;;8.20;99.90;;;;;;4964668;28;20038;-73
2024/03/14 01:34:20;;;;;;;6.38;2.88;;;8.20;99.90;;;;;;4962761;28;20134;-73
2024/03/14 01:36:46;;;;;;;0.95;0.88;;;8.10;99.90;;;;;;4978264;28;20392;-74
2024/03/14 01:39:14;;;;;;;1.02;0.93;;;8.20;99.90;;;;;;4963681;28;20119;-73
2024/03/14 01:41:41;;;;;;;3.15;0.98;;;8.10;99.90;;;;;;4960802;28;20057;-73
2024/03/14 01:44:07;;;;;;;1.83;1.73;;;8.10;99.90;;;;;;4960766;28;20499;-73
2024/03/14 01:46:33;;;;;;;1.10;0.95;;;8.10;99.90;;;;;;4964321;28;20035;-73
2024/03/14 01:49:01;;;;;;;0.93;0.93;;;8.10;99.90;;;;;;4962538;28;20045;-73
2024/03/14 01:51:28;;;;;;;5.20;1.45;;;8.10;99.90;;;;;;4964609;28;20158;-73
2024/03/14 01:53:55;;;;;;;1.80;1.52;;;8.00;99.90;;;;;;4964381;28;20027;-73
2024/03/14 01:56:21;;;;;;;0.95;0.95;;;8.00;99.90;;;;;;4962169;28;20547;-73
2024/03/14 01:58:52;;;;;;;2.00;1.20;;;8.00;99.90;;;;;;4960657;28;20491;-73
2024/03/14 02:01:21;;;;;;;1.00;0.98;;;8.10;99.90;;;;;;4960324;28;20038;-73
2024/03/14 02:03:56;;;;;;;2.42;1.77;;;8.00;99.90;;;;;;4962902;28;20035;-74
2024/03/14 02:06:33;;;;;;;5.97;1.70;;;7.90;99.90;;;;;;4960498;28;20039;-73
2024/03/14 02:09:00;;;;;;;1.85;1.30;;;7.90;99.90;;;;;;4962306;28;20043;-73
2024/03/14 02:11:26;;;;;;;2.67;1.27;;;7.90;99.90;;;;;;4960213;28;20851;-73
2024/03/14 02:13:52;;;;;;;1.20;1.10;;;7.90;99.90;;;;;;4962651;28;20416;-73
2024/03/14 02:16:18;;;;;;;1.13;1.13;;;7.90;99.90;;;;;;4958916;28;20038;-73
2024/03/14 02:18:45;;;;;;;0.70;0.70;;;7.90;99.90;;;;;;4964551;28;20366;-74
2024/03/14 02:21:12;;;;;;;1.23;1.13;;;7.90;99.90;;;;;;4943549;28;20051;-74
2024/03/14 02:23:38;;;;;;;2.10;1.55;;;7.80;99.90;;;;;;4959265;28;20058;-73
2024/03/14 02:26:07;;;;;;;1.02;0.93;;;7.90;99.90;;;;;;4965076;28;20034;-73
2024/03/14 02:28:33;;;;;;;1.83;1.73;;;7.80;99.90;;;;;;4962447;28;20137;-73
2024/03/14 02:30:59;;;;;;;1.52;1.23;;;7.90;99.90;;;;;;4959270;28;20051;-73
2024/03/14 02:33:25;;;;;;;1.05;0.85;;;7.90;99.90;;;;;;4962527;28;20051;-73
2024/03/14 02:35:51;;;;;;;2.08;1.33;;;7.90;99.90;;;;;;4965415;28;20032;-73
2024/03/14 02:38:17;;;;;;;0.77;0.77;;;7.80;99.90;;;;;;4964543;28;20039;-73
2024/03/14 02:40:44;;;;;;;3.35;1.38;;;7.80;99.90;;;;;;4959003;28;20030;-74
2024/03/14 02:43:10;;;;;;;1.13;1.08;;;7.70;99.90;;;;;;4958378;28;20047;-73
2024/03/14 02:45:37;;;;;;;1.52;1.42;;;7.70;99.90;;;;;;4960769;28;20038;-73
2024/03/14 02:48:04;;;;;;;2.38;2.17;;;7.80;99.90;;;;;;4963266;28;20027;-73
2024/03/14 02:50:31;;;;;;;2.45;1.83;;;7.80;99.90;;;;;;4964014;28;20047;-73
2024/03/14 02:52:57;;;;;;;8.40;3.13;;;7.90;99.90;;;;;;4965460;28;20047;-73
2024/03/14 02:55:23;;;;;;;2.20;2.00;;;7.90;99.90;;;;;;4964088;28;20035;-74
2024/03/14 02:57:49;;;;;;;7.30;3.03;;;7.90;99.90;;;;;;4957536;28;20043;-73
2024/03/14 03:00:18;;;;;;;1.52;1.15;;;7.80;99.90;;;;;;4953844;28;20046;-73
2024/03/14 03:02:44;;;;;;;2.33;2.10;;;7.80;99.90;;;;;;4965985;28;20037;-73
2024/03/14 03:05:10;;;;;;;2.80;2.60;;;7.70;99.90;;;;;;4964325;28;20031;-74
2024/03/14 03:07:37;;;;;;;1.50;1.38;;;7.70;99.90;;;;;;4965143;28;20039;-73
2024/03/14 03:10:08;;;;;;;2.22;1.40;;;7.60;99.90;;;;;;4964334;28;20047;-73
2024/03/14 03:12:39;;;;;;;0.93;0.90;;;7.60;99.90;;;;;;4958931;28;20040;-74
2024/03/14 03:15:08;;;;;;;;;;;7.60;99.90;;;;;;4961432;28;20047;-73
2024/03/14 03:17:34;;;;;;;2.75;1.08;;;7.50;99.90;;;;;;4961787;28;19921;-73
2024/03/14 03:20:09;;;;;;;3.17;2.88;;;7.40;99.90;;;;;;4964730;28;20047;-73
2024/03/14 03:23:06;;;;;;;3.75;1.75;;;7.40;99.90;;;;;;4967642;28;20034;-73
2024/03/14 03:25:21;;;;;;;1.88;1.55;;;7.50;99.90;;;;;;4965287;28;20042;-73
2024/03/14 03:27:48;;;;;;;1.33;1.10;;;7.50;99.90;;;;;;4964867;28;20041;-73
2024/03/14 03:30:14;;;;;;;3.00;1.23;;;7.50;99.90;;;;;;4961063;28;20042;-73
2024/03/14 03:32:40;;;;;;;2.63;1.58;;;7.50;99.90;;;;;;4967524;28;20039;-73
2024/03/14 03:35:07;;;;;;;0.60;0.60;;;7.60;99.90;;;;;;4965207;28;20043;-73
2024/03/14 03:37:33;;;;;;;3.45;1.55;;;7.50;99.90;;;;;;4960253;28;20047;-74
2024/03/14 03:40:00;;;;;;;0.43;0.43;;;7.50;99.90;;;;;;4967722;28;20043;-73
2024/03/14 03:42:26;;;;;;;1.15;1.05;;;7.40;99.90;;;;;;4946820;28;20221;-73
2024/03/14 03:44:52;;;;;;;3.03;1.27;;;7.40;99.90;;;;;;4965670;28;20035;-73
2024/03/14 03:47:20;;;;;;;0.28;0.28;;;7.30;99.90;;;;;;4961770;28;20058;-74
2024/03/14 03:49:47;;;;;;;1.83;1.67;;;7.30;99.90;;;;;;4967852;28;20041;-73
2024/03/14 03:52:13;;;;;;;1.17;1.08;;;7.30;99.90;;;;;;4962609;28;20038;-73
2024/03/14 03:54:40;;;;;;;0.85;0.85;;;7.30;99.90;;;;;;4963050;28;20019;-73
2024/03/14 03:57:06;;;;;;;1.45;1.23;;;7.30;99.90;;;;;;4964031;28;20031;-73
2024/03/14 03:59:32;;;;;;;1.50;1.40;;;7.20;99.90;;;;;;4961167;28;20519;-73
2024/03/14 04:02:00;;;;;;;0.57;0.57;;;7.20;99.90;;;;;;4965961;28;20046;-73
2024/03/14 04:04:27;;;;;;;5.05;1.15;;;7.20;99.90;;;;;;4955846;28;20120;-73
2024/03/14 04:06:53;;;;;;;0.70;0.70;;;7.20;99.90;;;;;;4967644;28;20400;-73
2024/03/14 04:09:19;;;;;;;1.50;1.02;;;7.20;99.90;;;;;;4965407;28;20046;-73
2024/03/14 04:11:47;;;;;;;0.85;0.85;;;7.10;99.90;;;;;;4960093;28;20384;-73
2024/03/14 04:14:13;;;;;;;1.38;1.23;;;7.10;99.90;;;;;;4952863;28;20047;-74
2024/03/14 04:16:39;;;;;;;5.72;1.75;;;7.10;99.90;;;;;;4948520;28;20028;-74
2024/03/14 04:19:06;;;;;;;0.65;0.65;;;7.00;99.90;;;;;;4957509;28;20031;-73
2024/03/14 04:21:32;;;;;;;1.90;1.27;;;7.00;99.90;;;;;;4961191;28;20456;-73
2024/03/14 04:23:58;;;;;;;1.40;1.30;;;7.00;99.90;;;;;;4960500;28;20754;-73
2024/03/14 04:26:24;;;;;;;1.90;1.65;;;7.00;99.90;;;;;;4967796;28;20401;-73
2024/03/14 04:28:50;;;;;;;0.20;0.20;;;6.90;99.90;;;;;;4954698;28;20043;-73
2024/03/14 04:31:19;;;;;;;0.52;0.52;;;7.00;99.90;;;;;;4954467;28;20042;-74
2024/03/14 04:33:45;;;;;;;0.45;0.43;;;7.00;99.90;;;;;;4950548;28;20828;-73
2024/03/14 04:36:11;;;;;;;0.50;0.50;;;6.90;99.90;;;;;;4955605;28;20508;-74
2024/03/14 04:38:38;;;;;;;0.20;0.20;;;6.90;99.90;;;;;;4958113;28;20031;-73
2024/03/14 04:41:14;;;;;;;2.13;1.92;;;6.80;99.90;;;;;;4966290;28;20040;-73
2024/03/14 04:43:42;;;;;;;0.70;0.63;;;6.90;99.90;;;;;;4962158;28;20485;-74
2024/03/14 04:46:10;;;;;;;1.65;1.52;;;6.80;99.90;;;;;;4959357;28;20397;-74
2024/03/14 04:48:36;;;;;;;0.60;0.60;;;6.80;99.90;;;;;;4962872;28;20034;-73
2024/03/14 04:51:04;;;;;;;0.75;0.75;;;6.70;99.90;;;;;;4961647;28;20042;-73
2024/03/14 04:53:30;;;;;;;2.35;1.98;;;6.70;99.90;;;;;;4964540;28;20078;-73
2024/03/14 04:55:56;;;;;;;0.30;0.30;;;6.70;99.90;;;;;;4965698;28;20035;-74
2024/03/14 04:58:24;;;;;;;0.32;0.32;;;6.80;99.90;;;;;;4957672;28;20044;-73
2024/03/14 05:00:50;;;;;;;0.60;0.57;;;6.70;99.90;;;;;;4961274;28;20052;-73
2024/03/14 05:03:17;;;;;;;1.00;0.47;;;6.70;99.90;;;;;;4960443;28;20361;-73
2024/03/14 05:05:44;;;;;;;1.58;0.93;;;6.70;99.90;;;;;;4965083;28;20035;-73
2024/03/14 05:08:10;;;;;;;0.63;0.63;;;6.60;99.90;;;;;;4966687;28;20421;-73
2024/03/14 05:10:37;;;;;;;1.13;1.08;;;6.70;99.90;;;;;;4963135;28;20031;-73
2024/03/14 05:13:04;;;;;;;0.85;0.77;;;6.60;99.90;;;;;;4961846;28;20038;-73
2024/03/14 05:15:31;;;;;;;3.15;0.98;;;6.60;99.90;;;;;;4957125;28;20035;-73
2024/03/14 05:18:02;;;;;;;0.60;0.60;;;6.60;99.90;;;;;;4965929;28;20461;-73
2024/03/14 05:20:28;;;;;;;;;;;6.60;99.90;;;;;;4964374;28;20476;-73
2024/03/14 05:22:56;;;;;;;1.65;1.48;;;6.50;99.90;;;;;;4967157;28;20012;-73
2024/03/14 05:25:24;;;;;;;1.92;0.68;;;6.50;99.90;;;;;;4963954;28;20027;-73
2024/03/14 05:27:50;;;;;;;1.13;1.00;;;6.50;99.90;;;;;;4963042;28;20058;-73
2024/03/14 05:30:20;;;;;;;1.10;0.98;;;6.50;99.90;;;;;;4927206;28;20035;-73
2024/03/14 05:32:46;;;;;;;1.75;1.17;;;6.40;99.90;;;;;;4964427;28;20102;-73
2024/03/14 05:35:12;;;;;;;1.55;1.45;;;6.40;99.90;;;;;;4967176;28;20031;-74
2024/03/14 05:37:41;;;;;;;0.80;0.80;;;6.40;99.90;;;;;;4966028;28;20047;-73
2024/03/14 05:40:12;;;;;;;0.55;0.55;;;6.30;99.90;;;;;;4962643;28;20077;-73
2024/03/14 05:42:39;;;;;;;2.85;2.10;;;6.30;99.90;;;;;;4961260;28;20047;-73
2024/03/14 05:45:05;;;;;;;3.10;1.20;;;6.40;99.90;;;;;;4960021;28;20400;-73
2024/03/14 05:47:33;;;;;;;0.90;0.82;;;6.40;99.90;;;;;;4963366;28;20035;-73
2024/03/14 05:50:06;;;;;;;1.42;1.33;;;6.40;99.90;;;;;;4966257;28;20047;-73
2024/03/14 05:52:33;;;;;;;0.35;0.35;;;6.40;99.90;;;;;;4965145;28;20035;-72
2024/03/14 05:54:59;;;;;;;0.50;0.50;;;6.30;99.90;;;;;;4966596;28;20503;-73
2024/03/14 05:57:25;;;;;;;1.05;0.95;;;6.40;99.90;;;;;;4959343;28;20031;-73
2024/03/14 05:59:52;;;;;;;1.15;0.95;;;6.40;99.90;;;;;;4958637;28;20031;-74
2024/03/14 06:02:19;;;;;;;0.82;0.77;;;6.40;99.90;;;;;;4963572;28;20500;-74
2024/03/14 06:04:45;;;;;;;3.22;0.85;;;6.50;99.90;;;;;;4962569;28;20065;-73
2024/03/14 06:07:13;;;;;;;2.10;1.42;;;6.50;99.90;;;;;;4966640;28;20108;-73
2024/03/14 06:09:42;;;;;;;0.45;0.32;;;6.50;99.90;;;;;;4966380;28;20039;-73
2024/03/14 06:12:09;;;;;;;0.90;0.90;;;6.60;99.90;;;;;;4959669;28;20043;-73
2024/03/14 06:14:35;;;;;;;0.98;0.75;;;6.60;99.90;;;;;;4961296;28;20022;-73
2024/03/14 06:17:05;;;;;;;0.88;0.82;;;6.60;99.90;;;;;;4958926;28;20032;-74
2024/03/14 06:19:31;;;;;;;0.50;0.50;;;6.70;99.90;;;;;;4963071;28;20039;-73
2024/03/14 06:21:57;;;;;;;2.70;1.27;;;6.70;99.90;;;;;;4961469;28;20039;-73
2024/03/14 06:24:24;;;;;;;0.68;0.68;;;6.80;99.90;;;;;;4959838;28;20385;-74
2024/03/14 06:26:50;;;;;;;1.70;1.60;;;6.80;99.90;;;;;;4965495;28;20061;-73
2024/03/14 06:29:16;;;;;;;1.33;1.23;;;6.90;99.90;;;;;;4960349;28;20515;-73
2024/03/14 06:31:42;;;;;;;0.82;0.82;;;7.00;99.90;;;;;;4957247;28;20047;-72
2024/03/14 06:34:09;;;;;;;1.08;1.00;;;7.00;99.90;;;;;;4963620;28;20046;-73
2024/03/14 06:36:36;;;;;;;1.98;1.27;;;7.10;99.90;;;;;;4966475;28;20034;-73
2024/03/14 06:39:07;;;;;;;1.58;1.48;;;7.20;99.90;;;;;;4964830;28;20048;-72
2024/03/14 06:41:34;;;;;;;0.55;0.55;;;7.30;99.90;;;;;;4962086;28;20038;-73
2024/03/14 06:44:01;;;;;;;0.85;0.85;;;7.30;99.90;;;;;;4959728;28;20051;-72
2024/03/14 06:46:28;;;;;;;17.10;1.95;;;7.40;99.90;;;;;;4960415;28;20790;-73
2024/03/14 06:48:57;;;;;;;1.02;0.93;;;7.50;99.90;;;;;;4963397;28;20520;-73
2024/03/14 06:51:24;;;;;;;1.25;1.15;;;7.60;99.90;;;;;;4962040;28;20035;-73
2024/03/14 06:53:50;;;;;;;1.45;1.27;;;7.60;99.90;;;;;;4965235;28;20039;-73
2024/03/14 06:56:17;;;;;;;3.42;1.40;;;7.70;99.90;;;;;;4962153;28;20038;-74
2024/03/14 06:58:46;;;;;;;3.05;2.13;;;7.80;99.90;;;;;;4966860;28;20047;-73
2024/03/14 07:01:12;;;;;;;2.35;2.15;;;8.00;99.90;;;;;;4963332;28;20047;-73
2024/03/14 07:03:38;;;;;;;0.55;0.55;;;8.20;99.90;;;;;;4966934;28;20034;-72
2024/03/14 07:06:05;;;;;;;2.65;1.65;;;8.30;99.90;;;;;;4967237;28;20035;-72
2024/03/14 07:08:31;;;;;;;4.10;2.35;;;8.30;99.90;;;;;;4966362;28;20038;-74
2024/03/14 07:10:58;;;;;;;1.67;1.48;;;8.50;99.90;;;;;;4966538;28;20482;-74
2024/03/14 07:13:24;;;;;;;1.15;1.13;;;8.70;99.90;;;;;;4944072;28;20040;-74
2024/03/14 07:15:50;;;;;;;2.60;1.65;;;8.90;99.90;;;;;;4965433;28;20031;-74
2024/03/14 07:18:16;;;;;;;1.58;1.48;;;9.00;99.90;;;;;;4964364;28;20039;-75
2024/03/14 07:20:44;;;;;;;1.48;1.30;;;9.20;99.90;;;;;;4963109;28;20515;-74
2024/03/14 07:23:11;;;;;;;1.38;0.90;;;9.30;99.90;;;;;;4963354;28;20053;-74
2024/03/14 07:25:37;;;;;;;1.70;1.40;;;9.80;99.90;;;;;;4966096;28;20316;-75
2024/03/14 07:28:03;;;;;;;4.13;2.53;;;10.10;99.90;;;;;;4964714;28;20031;-74
2024/03/14 07:30:30;;;;;;;1.50;1.40;;;10.60;99.90;;;;;;4961577;28;20384;-77
2024/03/14 07:32:57;;;;;;;1.27;1.17;;;11.00;99.90;;;;;;4967599;28;20493;-76
2024/03/14 07:35:23;;;;;;;0.38;0.38;;;11.10;99.90;;;;;;4967097;28;20050;-73
2024/03/14 07:37:49;;;;;;;3.95;2.42;;;11.30;99.90;;;;;;4970733;28;20034;-75
2024/03/14 07:40:19;;;;;;;0.70;0.65;;;11.40;99.90;;;;;;4966514;28;20047;-74
2024/03/14 07:42:45;;;;;;;1.20;1.10;;;11.70;99.90;;;;;;4965305;28;20061;-74
2024/03/14 07:45:17;;;;;;;2.75;0.70;;;11.70;99.90;;;;;;4963372;28;20038;-74
2024/03/14 07:47:52;;;;;;;0.52;0.47;;;11.90;1.00;;;;;;4965508;28;20035;-74
2024/03/14 07:50:18;;;;;;;2.08;1.48;;;12.30;99.90;;;;;;4966191;28;20419;-74
2024/03/14 07:52:45;;;;;;;1.33;1.08;;;12.50;99.90;;;;;;4969646;28;20037;-74
2024/03/14 07:55:11;;;;;;;0.93;0.60;;;12.90;1.00;;;;;;4966406;28;20420;-74
2024/03/14 07:57:37;;;;;;;1.27;0.90;;;13.30;1.00;;;;;;4963376;28;20038;-74
2024/03/14 08:00:09;;;;;;;3.58;1.52;;;13.20;1.00;;;;;;4956084;28;20039;-74
2024/03/14 08:02:38;;;;;;;2.05;1.55;;;13.40;1.00;;;;;;4965668;28;20431;-74
2024/03/14 08:05:08;;;;;;;1.07;0.90;;;13.70;1.00;;;;;;4968137;28;20027;-75
2024/03/14 08:07:38;;;;;;;0.77;0.77;;;14.00;1.00;;;;;;4966497;28;20051;-74
2024/03/14 08:10:05;;;;;;;0.50;0.50;;;14.70;99.90;;;;;;4967028;28;20031;-74
2024/03/14 08:12:32;;;;;;;1.75;1.35;;;14.90;99.90;;;;;;4964171;28;20055;-74
2024/03/14 08:15:05;;;;;;;1.10;0.95;;;14.80;99.90;;;;;;4961111;28;20062;-75
2024/03/14 08:17:31;;;;;;;0.80;0.63;;;14.80;99.90;;;;;;4966487;28;20030;-74
2024/03/14 08:20:07;;;;;;;0.77;0.57;;;14.70;99.90;;;;;;4965206;28;20495;-75
2024/03/14 08:22:35;;;;;;;3.33;1.20;;;14.50;99.90;;;;;;4967191;28;20034;-74
2024/03/14 08:25:03;;;;;;;1.90;1.33;;;14.00;99.90;;;;;;4965869;28;20027;-74
2024/03/14 08:27:29;;;;;;;2.17;1.55;;;13.60;99.90;;;;;;4946079;28;20043;-75
2024/03/14 08:29:55;;;;;;;1.38;0.82;;;13.30;99.90;;;;;;4960336;28;20038;-75
2024/03/14 08:32:22;;;;;;;0.43;0.43;;;13.40;99.90;;;;;;4962734;28;20031;-75
2024/03/14 08:34:48;;;;;;;2.28;1.38;;;13.40;99.90;;;;;;4966036;28;20041;-74
2024/03/14 08:37:14;;;;;;;1.25;1.15;;;13.30;99.90;;;;;;4968227;28;20031;-74
2024/03/14 08:39:41;;;;;;;3.15;1.15;;;13.20;99.90;;;;;;4965842;28;20094;-74
2024/03/14 08:42:08;;;;;;;1.30;1.15;;;12.90;1.00;;;;;;4945401;28;20047;-75
2024/03/14 08:44:34;;;;;;;1.10;0.93;;;12.90;99.90;;;;;;4963127;28;20043;-74
2024/03/14 08:47:00;;;;;;;3.05;1.40;;;12.80;1.00;;;;;;4962471;28;20038;-74
2024/03/14 08:49:26;;;;;;;1.50;1.40;;;12.70;1.00;;;;;;4963724;28;20051;-74
2024/03/14 08:51:53;;;;;;;2.22;1.63;;;12.60;1.00;;;;;;4947990;28;20051;-75
2024/03/14 08:56:52;;;;;;;1.92;1.17;;;12.20;1.00;;;;;;4962932;28;20048;-75
2024/03/14 08:59:20;;;;;;;0.77;0.77;;;12.40;1.00;;;;;;4963029;28;20026;-75
2024/03/14 09:01:46;;;;;;;2.35;2.15;;;12.60;1.00;;;;;;4961494;28;20104;-75
2024/03/14 09:04:13;;;;;;;1.98;1.70;;;12.80;1.00;;;;;;4969766;28;20038;-75
2024/03/14 09:06:42;;;;;;;2.25;2.05;;;12.70;1.00;;;;;;4976029;28;20038;-75
2024/03/14 09:09:23;;;;;;;3.50;2.10;;;12.80;1.00;;;;;;4967561;28;20392;-74
2024/03/14 09:11:50;;;;;;;;;;;13.00;99.90;;;;;;4965266;28;20039;-74
2024/03/14 09:14:16;;;;;;;3.38;1.98;;;12.90;99.90;;;;;;4955486;28;19911;-74
2024/03/14 09:16:44;;;;;;;2.63;1.65;;;13.30;99.90;;;;;;4960059;28;20046;-74
2024/03/14 09:19:13;;;;;;;3.38;1.77;;;13.50;99.90;;;;;;4966779;28;20043;-75
2024/03/14 09:21:40;;;;;;;1.27;1.17;;;13.40;99.90;;;;;;4962520;28;20047;-74
2024/03/14 09:24:07;;;;;;;1.70;1.30;;;13.40;99.90;;;;;;4967639;28;20035;-74
2024/03/14 09:26:36;;;;;;;1.30;1.20;;;13.30;99.90;;;;;;4960736;28;20043;-74
2024/03/14 09:29:03;;;;;;;3.90;1.63;;;13.30;99.90;;;;;;4960855;28;20035;-74
2024/03/14 09:31:30;;;;;;;1.63;1.25;;;13.40;99.90;;;;;;4962857;28;20396;-74
2024/03/14 09:33:56;;;;;;;1.35;1.13;;;13.50;99.90;;;;;;4962768;28;20035;-74
2024/03/14 09:36:22;;;;;;;1.38;1.02;;;13.50;99.90;;;;;;4966824;28;20477;-74
2024/03/14 09:38:48;;;;;;;2.33;1.45;;;13.50;99.90;;;;;;4964618;28;20046;-74
2024/03/14 09:41:17;;;;;;;1.48;1.13;;;13.90;99.90;;;;;;4962261;28;20385;-74
2024/03/14 09:43:44;;;;;;;1.48;1.38;;;14.70;99.90;;;;;;4962155;28;20058;-75
2024/03/14 09:46:15;;;;;;;2.97;1.48;;;14.50;1.00;;;;;;4959486;28;20046;-75
2024/03/14 09:48:41;;;;;;;0.50;0.50;;;14.40;39.70;;;;;;4965451;28;20031;-74
2024/03/14 09:51:09;;;;;;;0.65;0.57;;;14.60;1.00;;;;;;4964789;28;20054;-75
2024/03/14 09:53:37;;;;;;;0.55;0.55;;;14.80;1.00;;;;;;4952961;28;20042;-75
2024/03/14 09:56:04;;;;;;;0.73;0.73;;;16.00;1.00;;;;;;4964262;28;20031;-75
2024/03/14 09:58:31;;;;;;;0.57;0.43;;;16.60;99.90;;;;;;4957650;28;20050;-75
2024/03/14 10:00:58;;;;;;;1.98;0.80;;;16.40;99.90;;;;;;4963855;28;20027;-76
2024/03/14 10:03:25;;;;;;;1.77;1.10;;;15.70;99.90;;;;;;4963680;28;20500;-75
2024/03/14 10:05:53;;;;;;;0.65;0.55;;;15.60;99.90;;;;;;4967055;28;20050;-75
2024/03/14 10:08:20;;;;;;;1.33;0.95;;;15.50;99.90;;;;;;4966722;28;20050;-76
2024/03/14 10:10:46;;;;;;;1.08;0.85;;;15.30;1.00;;;;;;4964285;28;20293;-75
2024/03/14 10:13:26;;;;;;;1.63;0.82;;;15.00;99.90;;;;;;4956233;28;20039;-75
2024/03/14 10:15:54;;;;;;;1.15;1.02;;;15.00;99.90;;;;;;4961289;28;20473;-75
2024/03/14 10:18:22;;;;;;;2.38;0.60;;;15.30;99.90;;;;;;4962468;28;20043;-74
2024/03/14 10:20:49;;;;;;;1.65;1.55;;;15.80;99.90;;;;;;4967757;28;20038;-75
2024/03/14 10:23:17;;;;;;;1.85;1.17;;;15.70;99.90;;;;;;4958705;28;20035;-75
2024/03/14 10:25:50;;;;;;;2.20;1.30;;;15.80;99.90;;;;;;4965832;28;20308;-75
2024/03/14 10:28:20;;;;;;;0.93;0.30;;;15.90;99.90;;;;;;4962624;28;20039;-74
2024/03/14 10:30:52;;;;;;;3.97;0.90;;;15.80;99.90;;;;;;4962326;28;20058;-74
2024/03/14 10:33:20;;;;;;;1.85;1.20;;;15.60;99.90;;;;;;4967101;28;20921;-74
2024/03/14 10:35:46;;;;;;;1.77;0.95;;;15.50;99.90;;;;;;4968858;28;20039;-75
2024/03/14 10:38:19;;;;;;;0.90;0.90;;;15.30;99.90;;;;;;4971247;28;20038;-75
2024/03/14 10:40:48;;;;;;;1.02;0.55;;;15.30;99.90;;;;;;4968487;28;20483;-75
2024/03/14 10:43:17;;;;;;;0.88;0.80;;;15.30;99.90;;;;;;4965460;28;20390;-75
2024/03/14 10:45:43;;;;;;;1.52;0.80;;;15.00;99.90;;;;;;4967032;28;20490;-74
2024/03/14 10:48:10;;;;;;;2.60;1.30;;;15.10;99.90;;;;;;4969905;28;20030;-74
2024/03/14 10:50:37;;;;;;;0.38;0.30;;;15.30;99.90;;;;;;4969821;28;20042;-76
2024/03/14 10:53:05;;;;;;;1.35;1.08;;;15.40;99.90;;;;;;4963326;28;20043;-76
2024/03/14 10:55:33;;;;;;;0.30;0.30;;;15.40;99.90;;;;;;4961894;28;20408;-76
2024/03/14 10:58:01;;;;;;;0.90;0.88;;;15.50;99.90;;;;;;4960362;28;20034;-76
2024/03/14 11:00:29;;;;;;;3.08;1.83;;;15.20;99.90;;;;;;4962417;28;20043;-76
2024/03/14 11:02:57;;;;;;;1.13;1.13;;;15.40;99.90;;;;;;4967905;28;20042;-75
2024/03/14 11:05:23;;;;;;;0.68;0.68;;;15.50;99.90;;;;;;4969381;28;20384;-75
2024/03/14 11:08:00;;;;;;;0.30;0.30;;;15.00;99.90;;;;;;4967893;28;20030;-76
2024/03/14 11:10:28;;;;;;;0.93;0.93;;;15.00;99.90;;;;;;4967350;28;20034;-76
2024/03/14 11:13:14;;;;;;;0.77;0.63;;;15.10;99.90;;;;;;4950215;28;20054;-76
2024/03/14 11:15:42;;;;;;;0.40;0.40;;;14.90;99.90;;;;;;4966388;28;20473;-76
2024/03/14 11:18:18;;;;;;;0.90;0.47;;;15.00;99.90;;;;;;4962774;28;20035;-76
2024/03/14 11:20:54;;;;;;;0.98;0.95;;;15.10;99.90;;;;;;4969701;28;20622;-76
2024/03/14 11:23:28;;;;;;;0.38;0.32;;;15.20;99.90;;;;;;4967888;28;20362;-76
2024/03/14 11:25:59;;;;;;;1.33;0.77;;;15.50;99.90;;;;;;4966804;28;20043;-76
2024/03/14 11:28:28;;;;;;;1.70;0.88;;;15.90;99.90;;;;;;4964514;28;20034;-77
2024/03/14 11:30:55;;;;;;;0.77;0.77;;;16.20;30.70;;;;;;4949696;28;20053;-76
2024/03/14 11:33:26;;;;;;;0.20;0.20;;;16.20;7.60;;;;;;4967617;28;20404;-76
2024/03/14 11:35:58;;;;;;;0.65;0.65;;;16.10;25.70;;;;;;4947505;28;20053;-76
2024/03/14 11:38:28;;;;;;;0.50;0.43;;;15.90;32.40;;;;;;4967674;28;20393;-76
2024/03/14 11:40:58;;;;;;;0.40;0.40;;;16.00;99.90;;;;;;4968083;28;20046;-76
2024/03/14 11:43:26;;;;;;;0.60;0.43;;;16.20;4.30;;;;;;4963364;28;20051;-77
2024/03/14 11:45:59;;;;;;;0.52;0.52;;;16.40;1.00;;;;;;4963064;28;20278;-76
2024/03/14 11:48:29;;;;;;;1.60;0.45;;;16.30;1.00;;;;;;4966504;28;20022;-76
2024/03/14 11:50:58;;;;;;;2.35;0.57;;;16.30;1.00;;;;;;4967213;28;20045;-76
2024/03/14 11:53:27;;;;;;;0.30;0.30;;;16.30;1.00;;;;;;4956967;28;20038;-76
2024/03/14 11:55:54;;;;;;;1.67;1.15;;;16.50;1.00;;;;;;4968071;28;20043;-76
2024/03/14 11:58:21;;;;;;;0.20;0.20;;;16.70;1.00;;;;;;4961035;28;20034;-74
2024/03/14 12:00:48;;;;;;;0.10;0.10;;;16.60;1.00;;;;;;4964698;28;20046;-76
2024/03/14 12:03:15;;;;;;;0.82;0.82;;;16.70;1.00;;;;;;4945107;28;20038;-76
2024/03/14 12:05:42;;;;;;;0.20;0.20;;;17.00;1.00;;;;;;4968439;28;20031;-76
2024/03/14 12:08:10;;;;;;;1.30;0.82;;;17.10;1.00;;;;;;4946968;28;20030;-76
2024/03/14 12:10:38;;;;;;;0.47;0.47;;;17.00;1.00;;;;;;4965917;28;20033;-76
2024/03/14 12:13:10;;;;;;;1.33;0.32;;;17.00;1.00;;;;;;4964880;28;20080;-76
2024/03/14 12:15:37;;;;;;;2.50;0.93;;;17.00;1.00;;;;;;4965140;28;20035;-76
2024/03/14 12:18:04;;;;;;;0.30;0.30;;;17.00;1.00;;;;;;4962226;28;20042;-75
2024/03/14 12:20:32;;;;;;;1.30;1.05;;;16.90;99.90;;;;;;4967074;28;20035;-75
2024/03/14 12:22:58;;;;;;;0.10;0.10;;;16.60;1.00;;;;;;4967172;28;20893;-76
2024/03/14 12:25:24;;;;;;;0.77;0.60;;;16.70;1.00;;;;;;4965588;28;20031;-75
2024/03/14 12:27:52;;;;;;;0.25;0.25;;;16.60;99.90;;;;;;4962083;28;20046;-75
2024/03/14 12:30:20;;;;;;;0.80;0.25;;;16.60;99.90;;;;;;4964339;28;20027;-75
2024/03/14 12:33:01;;;;;;;6.20;0.40;;;16.80;99.90;;;;;;4963532;28;20042;-75
2024/03/14 12:35:27;;;;;;;0.10;0.10;;;17.00;99.90;;;;;;4966358;28;20058;-76
2024/03/14 12:37:55;;;;;;;0.20;0.20;;;17.10;99.90;;;;;;4966789;28;20030;-75
2024/03/14 12:40:23;;;;;;;0.22;0.22;;;17.00;99.90;;;;;;4967641;28;20034;-75
2024/03/14 12:42:53;;;;;;;0.47;0.40;;;17.00;99.90;;;;;;4965001;28;20042;-74
2024/03/14 12:45:23;;;;;;;0.63;0.25;;;16.90;99.90;;;;;;4963758;28;20046;-75
2024/03/14 12:47:52;;;;;;;0.10;0.10;;;17.10;99.90;;;;;;4962854;28;20027;-75
2024/03/14 12:50:24;;;;;;;0.25;0.22;;;17.40;99.90;;;;;;4966404;28;20039;-75
2024/03/14 12:53:03;;;;;;;1.20;0.60;;;17.40;99.90;;;;;;4967309;28;20042;-75
2024/03/14 12:55:31;;;;;;;0.30;0.30;;;17.10;99.90;;;;;;4965788;28;20039;-75
2024/03/14 12:57:58;;;;;;;0.50;0.50;;;17.10;99.90;;;;;;4956060;28;20519;-75
2024/03/14 13:00:26;;;;;;;0.17;0.17;;;17.10;99.90;;;;;;4962935;28;20042;-76